createdAt,value
2022-08-22T00:02:34.883Z,101223.84
2022-08-22T00:02:58.076Z,101213.78
2022-08-22T00:07:50.282Z,101212.97
2022-08-22T00:13:02.951Z,101211.31
2022-08-22T00:18:14.627Z,101213.31
2022-08-22T00:23:23.778Z,101210.91
2022-08-22T00:28:35.387Z,101217.50
2022-08-22T00:33:46.057Z,101226.19
2022-08-22T00:38:53.976Z,101221.09
2022-08-22T00:44:32.203Z,101224.72
2022-08-22T00:50:07.611Z,101220.50
2022-08-22T00:55:35.153Z,101222.53
2022-08-22T01:00:44.175Z,101215.63
2022-08-22T01:06:01.192Z,101213.03
2022-08-22T01:11:24.202Z,101210.28
2022-08-22T01:17:09.894Z,101202.06
2022-08-22T01:22:58.875Z,101203.88
2022-08-22T01:28:24.764Z,101204.69
2022-08-22T01:34:01.159Z,101203.88
2022-08-22T01:39:15.976Z,101200.78
2022-08-22T01:44:50.127Z,101195.75
2022-08-22T01:50:01.140Z,101195.75
2022-08-22T01:55:12.128Z,101191.44
2022-08-22T02:00:35.305Z,101192.44
2022-08-22T02:05:48.047Z,101205.56
2022-08-22T02:11:02.820Z,101195.84
2022-08-22T02:16:11.678Z,101191.34
2022-08-22T02:21:22.866Z,101189.34
2022-08-22T02:26:41.296Z,101198.84
2022-08-22T02:31:49.591Z,101203.31
2022-08-22T02:37:03.398Z,101211.91
2022-08-22T02:42:21.800Z,101213.28
2022-08-22T02:47:32.284Z,101218.78
2022-08-22T02:52:54.110Z,101217.66
2022-08-22T02:58:08.451Z,101226.78
2022-08-22T03:03:20.036Z,101235.19
2022-08-22T03:08:27.558Z,101236.25
2022-08-22T03:13:47.279Z,101242.94
2022-08-22T03:19:14.857Z,101256.19
2022-08-22T03:24:32.673Z,101264.84
2022-08-22T03:29:44.310Z,101273.59
2022-08-22T03:35:09.238Z,101272.53
2022-08-22T03:40:31.796Z,101273.13
2022-08-22T03:46:11.245Z,101274.00
2022-08-22T03:51:55.750Z,101276.88
2022-08-22T03:57:40.874Z,101278.84
2022-08-22T04:03:30.667Z,101287.66
2022-08-22T04:09:08.831Z,101299.28
2022-08-22T04:14:40.319Z,101295.75
2022-08-22T04:20:22.273Z,101295.75
2022-08-22T04:25:32.102Z,101297.63
2022-08-22T04:30:45.195Z,101308.13
2022-08-22T04:36:00.657Z,101313.97
2022-08-22T04:41:09.973Z,101315.59
2022-08-22T04:46:25.893Z,101314.53
2022-08-22T04:51:48.530Z,101305.84
2022-08-22T04:57:07.826Z,101310.03
2022-08-22T05:02:20.926Z,101314.72
2022-08-22T05:07:29.382Z,101315.41
2022-08-22T05:12:44.462Z,101327.72
2022-08-22T05:17:52.158Z,101325.28
2022-08-22T05:23:01.070Z,101329.38
2022-08-22T05:28:12.251Z,101336.34
2022-08-22T05:33:23.336Z,101347.31
2022-08-22T05:38:32.371Z,101343.97
2022-08-22T05:43:38.889Z,101339.72
2022-08-22T05:48:49.624Z,101338.16
2022-08-22T05:54:05.691Z,101336.28
2022-08-22T05:59:22.922Z,101339.28
2022-08-22T06:04:35.466Z,101336.56
2022-08-22T06:10:00.637Z,101344.97
2022-08-22T06:15:12.653Z,101342.03
2022-08-22T06:20:21.153Z,101344.19
2022-08-22T06:25:28.404Z,101345.13
2022-08-22T06:30:32.808Z,101336.94
2022-08-22T06:35:42.402Z,101339.72
2022-08-22T06:40:46.241Z,101339.56
2022-08-22T06:45:50.949Z,101331.91
2022-08-22T06:50:59.482Z,101334.59
2022-08-22T06:56:05.177Z,101329.91
2022-08-22T07:01:14.842Z,101333.47
2022-08-22T07:06:23.674Z,101332.56
2022-08-22T07:11:30.610Z,101336.84
2022-08-22T07:16:40.201Z,101332.22
2022-08-22T07:21:47.392Z,101333.97
2022-08-22T07:27:06.236Z,101321.66
2022-08-22T07:32:16.193Z,101330.63
2022-08-22T07:37:30.781Z,101327.53
2022-08-22T07:42:44.434Z,101335.13
2022-08-22T07:48:05.932Z,101334.63
2022-08-22T07:53:20.237Z,101339.63
2022-08-22T07:58:25.839Z,101341.31
2022-08-22T08:03:31.488Z,101336.09
2022-08-22T08:08:42.176Z,101340.66
2022-08-22T08:13:50.279Z,101327.69
2022-08-22T08:18:57.784Z,101323.41
2022-08-22T08:24:03.883Z,101325.38
2022-08-22T08:29:07.964Z,101327.78
2022-08-22T08:34:17.327Z,101336.97
2022-08-22T08:39:28.584Z,101326.16
2022-08-22T08:45:07.881Z,101310.94
2022-08-22T08:50:40.908Z,101329.28
2022-08-22T08:55:54.066Z,101314.72
2022-08-22T09:01:06.382Z,101312.50
2022-08-22T09:06:36.536Z,101308.31
2022-08-22T09:12:22.132Z,101308.59
2022-08-22T09:17:57.836Z,101304.28
2022-08-22T09:23:36.476Z,101314.94
2022-08-22T09:28:44.687Z,101302.91
2022-08-22T09:33:55.683Z,101298.28
2022-08-22T09:39:06.021Z,101307.91
2022-08-22T09:44:26.037Z,101304.81
2022-08-22T09:49:44.831Z,101303.06
2022-08-22T09:54:55.446Z,101305.69
2022-08-22T10:00:23.354Z,101296.41
2022-08-22T10:05:40.289Z,101303.66
2022-08-22T10:11:06.876Z,101313.13
2022-08-22T10:16:31.506Z,101321.97
2022-08-22T10:21:42.682Z,101307.81
2022-08-22T10:26:50.398Z,101310.13
2022-08-22T10:32:02.851Z,101313.00
2022-08-22T10:37:16.773Z,101309.75
2022-08-22T10:42:28.658Z,101315.72
2022-08-22T10:47:46.652Z,101305.38
2022-08-22T10:52:54.437Z,101302.56
2022-08-22T10:58:06.383Z,101300.31
2022-08-22T11:03:21.869Z,101303.91
2022-08-22T11:08:57.625Z,101293.25
2022-08-22T11:14:37.375Z,101304.66
2022-08-22T11:19:58.134Z,101305.72
2022-08-22T11:25:29.267Z,101303.94
2022-08-22T11:30:52.253Z,101296.09
2022-08-22T11:36:17.399Z,101296.81
2022-08-22T11:41:26.327Z,101294.41
2022-08-22T11:46:32.868Z,101294.41
2022-08-22T11:51:59.586Z,101290.94
2022-08-22T11:57:08.515Z,101294.78
2022-08-22T12:02:19.594Z,101283.25
2022-08-22T12:07:29.828Z,101283.28
2022-08-22T12:12:53.157Z,101285.50
2022-08-22T12:18:26.503Z,101283.06
2022-08-22T12:24:00.805Z,101294.09
2022-08-22T12:29:33.849Z,101292.59
2022-08-22T12:34:49.091Z,101289.09
2022-08-22T12:40:27.235Z,101291.84
2022-08-22T12:45:50.803Z,101292.28
2022-08-22T12:50:59.728Z,101289.44
2022-08-22T12:56:17.861Z,101293.72
2022-08-22T13:01:23.354Z,101300.13
2022-08-22T13:07:09.473Z,101301.78
2022-08-22T13:12:27.720Z,101312.50
2022-08-22T13:17:32.157Z,101321.16
2022-08-22T13:22:45.703Z,101320.25
2022-08-22T13:27:53.808Z,101330.19
2022-08-22T13:33:05.085Z,101336.59
2022-08-22T13:38:22.078Z,101348.81
2022-08-22T13:43:37.009Z,101363.56
2022-08-22T13:48:50.267Z,101371.28
2022-08-22T13:54:02.378Z,101371.25
2022-08-22T13:59:34.119Z,101380.78
2022-08-22T14:04:43.681Z,101378.16
2022-08-22T14:09:54.217Z,101386.88
2022-08-22T14:15:01.908Z,101385.28
2022-08-22T14:20:11.015Z,101390.28
2022-08-22T14:25:21.289Z,101388.56
2022-08-22T14:30:30.528Z,101383.56
2022-08-22T14:35:38.084Z,101384.56
2022-08-22T14:40:42.942Z,101401.03
2022-08-22T14:45:57.357Z,101396.16
2022-08-22T14:51:09.991Z,101408.91
2022-08-22T14:56:18.571Z,101406.00
2022-08-22T15:01:25.955Z,101413.78
2022-08-22T15:06:37.164Z,101412.72
2022-08-22T15:11:49.337Z,101406.69
2022-08-22T15:16:58.068Z,101399.22
2022-08-22T15:22:13.755Z,101403.97
2022-08-22T15:27:20.041Z,101406.47
2022-08-22T15:32:27.067Z,101399.72
2022-08-22T15:37:32.966Z,101412.88
2022-08-22T15:42:43.392Z,101418.44
2022-08-22T15:47:53.450Z,101414.78
2022-08-22T15:53:21.826Z,101412.75
2022-08-22T15:58:28.173Z,101426.56
2022-08-22T16:03:37.313Z,101428.16
2022-08-22T16:08:50.570Z,101427.13
2022-08-22T16:14:18.964Z,101426.91
2022-08-22T16:19:28.671Z,101423.78
2022-08-22T16:24:34.025Z,101432.66
2022-08-22T16:29:42.454Z,101436.22
2022-08-22T16:34:47.742Z,101446.78
2022-08-22T16:39:51.577Z,101441.03
2022-08-22T16:45:08.791Z,101426.41
2022-08-22T16:50:33.330Z,101425.28
2022-08-22T16:55:43.849Z,101419.25
2022-08-22T17:00:57.929Z,101422.19
2022-08-22T17:06:16.812Z,101417.69
2022-08-22T17:11:32.362Z,101414.66
2022-08-22T17:16:54.026Z,101420.56
2022-08-22T17:22:04.186Z,101426.22
2022-08-22T17:27:18.000Z,101431.66
2022-08-22T17:32:28.496Z,101429.06
2022-08-22T17:37:45.009Z,101437.53
2022-08-22T17:43:24.990Z,101424.69
2022-08-22T17:48:34.173Z,101427.47
2022-08-22T17:53:47.343Z,101434.09
2022-08-22T17:59:00.231Z,101429.63
2022-08-22T18:04:07.660Z,101422.09
2022-08-22T18:09:26.495Z,101422.16
2022-08-22T18:14:36.615Z,101422.28
2022-08-22T18:19:46.231Z,101416.56
2022-08-22T18:24:57.627Z,101423.06
2022-08-22T18:30:14.924Z,101429.25
2022-08-22T18:35:23.690Z,101419.44
2022-08-22T18:40:49.671Z,101417.56
2022-08-22T18:46:03.911Z,101414.47
2022-08-22T18:51:24.935Z,101402.50
2022-08-22T18:56:51.838Z,101395.53
2022-08-22T19:02:09.197Z,101390.41
2022-08-22T19:07:35.231Z,101378.38
2022-08-22T19:13:01.278Z,101371.50
2022-08-22T19:18:32.209Z,101362.44
2022-08-22T19:23:50.730Z,101352.72
2022-08-22T19:28:58.567Z,101346.81
2022-08-22T19:34:18.689Z,101346.28
2022-08-22T19:39:54.415Z,101347.00
2022-08-22T19:45:17.380Z,101325.59
2022-08-22T19:50:31.069Z,101336.06
2022-08-22T19:55:54.938Z,101328.25
2022-08-22T20:01:06.774Z,101312.44
2022-08-22T20:06:42.910Z,101312.06
2022-08-22T20:11:54.145Z,101309.56
2022-08-22T20:17:10.535Z,101297.41
2022-08-22T20:22:19.725Z,101292.59
2022-08-22T20:27:30.328Z,101272.38
2022-08-22T20:32:42.965Z,101264.91
2022-08-22T20:38:06.432Z,101270.78
2022-08-22T20:43:18.146Z,101264.25
2022-08-22T20:48:24.008Z,101257.84
2022-08-22T20:53:27.653Z,101264.09
2022-08-22T20:58:39.688Z,101249.94
2022-08-22T21:03:48.147Z,101257.34
2022-08-22T21:08:51.741Z,101244.81
2022-08-22T21:13:55.595Z,101233.69
2022-08-22T21:19:01.883Z,101230.63
2022-08-22T21:24:08.165Z,101220.78
2022-08-22T21:29:22.583Z,101232.31
2022-08-22T21:34:32.679Z,101215.34
2022-08-22T21:39:42.370Z,101220.63
2022-08-22T21:44:56.324Z,101220.81
2022-08-22T21:50:19.547Z,101209.75
2022-08-22T21:55:27.386Z,101210.94
2022-08-22T22:00:49.365Z,101222.50
2022-08-22T22:05:58.269Z,101202.53
2022-08-22T22:11:06.130Z,101200.81
2022-08-22T22:16:13.727Z,101187.69
2022-08-22T22:21:19.913Z,101187.84
2022-08-22T22:26:23.619Z,101170.06
2022-08-22T22:31:26.542Z,101171.72
2022-08-22T22:36:32.501Z,101162.53
2022-08-22T22:41:36.544Z,101147.66
2022-08-22T22:46:40.888Z,101152.28
2022-08-22T22:51:46.132Z,101144.94
2022-08-22T22:56:50.586Z,101142.69
2022-08-22T23:02:07.021Z,101150.38
2022-08-22T23:07:13.250Z,101141.81
2022-08-22T23:12:16.992Z,101131.81
2022-08-22T23:17:20.882Z,101120.13
2022-08-22T23:22:26.173Z,101105.91
2022-08-22T23:27:29.783Z,101108.16
2022-08-22T23:32:33.377Z,101106.13
2022-08-22T23:37:38.588Z,101101.66
2022-08-22T23:42:42.397Z,101096.47
2022-08-22T23:47:45.966Z,101100.19
2022-08-22T23:52:51.205Z,101099.13
2022-08-22T23:57:54.820Z,101095.63
